Time;durP1;ratioP1;P1;durP2;ratioP2;P2;SDS_P1;SDS_P2;PMS_P1;PMS_P2;Temp;Humidity;BMP_temperature;BMP_pressure;BME280_temperature;BME280_humidity;BME280_pressure;Samples;Min_cycle;Max_cycle;Signal;HPM_P1;HPM_P2
2023/07/07 00:01:42;;;;;;;3.90;2.70;;;17.40;67.30;;;;;;5069085;28;20411;-70
2023/07/07 00:04:09;;;;;;;3.90;2.58;;;17.40;68.60;;;;;;5069090;28;20885;-70
2023/07/07 00:06:36;;;;;;;4.50;3.10;;;17.40;69.80;;;;;;5068349;28;20462;-70
2023/07/07 00:09:03;;;;;;;4.03;3.10;;;17.40;70.60;;;;;;5055173;28;20420;-70
2023/07/07 00:11:30;;;;;;;4.57;3.08;;;17.30;70.50;;;;;;5049301;28;20441;-70
2023/07/07 00:13:57;;;;;;;3.85;2.80;;;17.30;70.90;;;;;;5051836;28;20439;-70
2023/07/07 00:16:27;;;;;;;3.47;2.80;;;17.30;70.40;;;;;;5069624;28;20959;-70
2023/07/07 00:18:54;;;;;;;6.68;3.10;;;17.30;71.60;;;;;;5050740;28;20417;-70
2023/07/07 00:21:24;;;;;;;3.47;2.75;;;17.30;71.30;;;;;;5051431;28;20763;-70
2023/07/07 00:23:53;;;;;;;4.40;3.00;;;17.40;71.80;;;;;;5050395;28;20423;-70
2023/07/07 00:26:21;;;;;;;4.32;3.00;;;17.30;71.70;;;;;;5051453;28;20409;-70
2023/07/07 00:28:48;;;;;;;4.07;2.80;;;17.30;73.40;;;;;;5057754;28;20423;-70
2023/07/07 00:31:15;;;;;;;3.88;2.92;;;17.30;73.40;;;;;;5068990;28;20454;-70
2023/07/07 00:33:43;;;;;;;4.90;3.40;;;17.20;73.50;;;;;;5069003;28;20415;-70
2023/07/07 00:36:10;;;;;;;3.40;2.90;;;17.20;74.60;;;;;;5069304;28;20407;-70
2023/07/07 00:38:37;;;;;;;3.25;2.85;;;17.20;74.90;;;;;;5068452;28;20434;-70
2023/07/07 00:41:05;;;;;;;4.90;3.05;;;17.20;76.50;;;;;;5068599;28;20439;-70
2023/07/07 00:43:32;;;;;;;3.65;2.92;;;17.20;75.80;;;;;;5067598;28;20937;-70
2023/07/07 00:46:00;;;;;;;4.03;2.90;;;17.20;77.00;;;;;;5066184;28;20794;-70
2023/07/07 00:48:32;;;;;;;4.40;2.88;;;17.10;77.30;;;;;;5068481;28;20932;-70
2023/07/07 00:51:04;;;;;;;3.90;2.70;;;17.10;77.80;;;;;;5065914;28;20460;-70
2023/07/07 00:53:32;;;;;;;4.57;3.10;;;17.00;76.80;;;;;;5068179;28;20422;-70
2023/07/07 00:56:02;;;;;;;4.03;2.90;;;17.00;75.70;;;;;;5068460;28;20415;-70
2023/07/07 00:58:30;;;;;;;3.20;2.50;;;17.00;76.40;;;;;;5068004;28;20438;-70
2023/07/07 01:01:02;;;;;;;2.80;2.38;;;17.00;76.20;;;;;;5060060;28;20423;-70
2023/07/07 01:03:33;;;;;;;3.65;2.33;;;16.90;75.00;;;;;;5068601;28;20777;-70
2023/07/07 01:06:06;;;;;;;3.95;2.40;;;16.90;75.40;;;;;;5068515;28;20424;-70
2023/07/07 01:08:33;;;;;;;4.05;2.63;;;16.90;74.80;;;;;;5068210;28;20434;-70
2023/07/07 01:11:00;;;;;;;4.43;2.40;;;16.80;75.20;;;;;;5068034;28;20419;-70
2023/07/07 01:13:27;;;;;;;4.35;2.70;;;16.80;76.00;;;;;;5067453;28;20450;-70
2023/07/07 01:16:02;;;;;;;3.90;2.42;;;16.80;76.00;;;;;;5067966;28;20427;-70
2023/07/07 01:18:38;;;;;;;4.63;2.42;;;16.80;75.90;;;;;;5054917;28;20417;-70
2023/07/07 01:21:13;;;;;;;4.05;2.60;;;16.80;77.00;;;;;;5051959;28;20524;-71
2023/07/07 01:24:24;;;;;;;4.47;2.47;;;16.70;77.30;;;;;;5051844;28;20421;-69
2023/07/07 01:27:16;;;;;;;2.90;2.30;;;16.70;77.90;;;;;;5052339;28;20447;-69
2023/07/07 01:30:05;;;;;;;4.30;2.70;;;16.70;78.60;;;;;;5068836;28;20520;-70
2023/07/07 01:32:35;;;;;;;3.03;2.60;;;16.60;79.10;;;;;;5055065;28;20559;-69
2023/07/07 01:35:10;;;;;;;4.03;3.10;;;16.60;78.60;;;;;;5051987;28;20435;-70
2023/07/07 01:37:37;;;;;;;4.43;2.95;;;16.50;80.00;;;;;;5052235;28;20413;-70
2023/07/07 01:40:05;;;;;;;3.00;2.70;;;16.50;80.70;;;;;;5050792;28;20440;-70
2023/07/07 01:42:38;;;;;;;4.82;2.63;;;16.50;81.10;;;;;;5053339;28;20879;-70
2023/07/07 01:45:12;;;;;;;3.58;2.83;;;16.40;81.10;;;;;;5071584;28;20419;-70
2023/07/07 01:47:43;;;;;;;4.15;3.08;;;16.40;81.60;;;;;;5071828;28;20786;-70
2023/07/07 01:50:17;;;;;;;3.53;2.70;;;16.40;81.70;;;;;;5071146;28;20882;-70
2023/07/07 01:52:47;;;;;;;4.53;2.90;;;16.40;82.00;;;;;;5071715;28;20428;-70
2023/07/07 01:55:18;;;;;;;3.40;2.50;;;16.40;82.00;;;;;;5071063;28;20530;-70
2023/07/07 01:57:49;;;;;;;3.20;2.90;;;16.30;83.20;;;;;;5070574;28;20431;-71
2023/07/07 02:00:18;;;;;;;5.05;3.05;;;16.20;84.20;;;;;;5063467;28;20432;-70
2023/07/07 02:02:46;;;;;;;5.97;5.57;;;16.20;84.40;;;;;;5069603;28;20420;-70
2023/07/07 02:05:13;;;;;;;4.47;3.83;;;16.20;84.10;;;;;;5071535;28;20415;-70
2023/07/07 02:07:41;;;;;;;3.90;3.13;;;16.10;84.90;;;;;;5071319;28;20415;-70
2023/07/07 02:10:08;;;;;;;4.20;3.28;;;16.10;85.70;;;;;;5070422;28;20420;-70
2023/07/07 02:12:35;;;;;;;5.55;4.38;;;16.10;84.50;;;;;;5070163;28;20434;-70
2023/07/07 02:15:02;;;;;;;6.38;4.72;;;16.10;83.50;;;;;;5071038;28;20420;-70
2023/07/07 02:17:29;;;;;;;5.65;5.20;;;16.00;83.90;;;;;;5071338;28;20416;-70
2023/07/07 02:19:57;;;;;;;4.00;3.10;;;16.00;83.80;;;;;;5070435;28;20438;-70
2023/07/07 02:22:25;;;;;;;3.92;2.50;;;16.00;83.60;;;;;;5071295;28;20412;-70
2023/07/07 02:24:51;;;;;;;4.23;2.63;;;16.00;82.80;;;;;;5070895;28;20411;-70
2023/07/07 02:27:19;;;;;;;4.90;2.80;;;16.00;82.70;;;;;;5067337;28;20432;-69
2023/07/07 02:29:46;;;;;;;3.45;2.70;;;16.00;82.40;;;;;;5069210;28;20457;-70
2023/07/07 02:32:12;;;;;;;3.63;2.45;;;16.00;82.10;;;;;;5056753;28;20425;-71
2023/07/07 02:34:47;;;;;;;4.63;2.63;;;16.00;82.30;;;;;;5050460;28;20413;-70
2023/07/07 02:37:16;;;;;;;4.35;3.17;;;15.90;81.80;;;;;;5051114;28;20429;-70
2023/07/07 02:39:43;;;;;;;3.80;2.60;;;15.90;81.90;;;;;;5049932;28;20417;-70
2023/07/07 02:42:10;;;;;;;4.45;2.80;;;15.90;82.20;;;;;;5056003;28;20454;-70
2023/07/07 02:44:37;;;;;;;4.60;2.90;;;15.90;82.50;;;;;;5070405;28;20426;-70
2023/07/07 02:47:04;;;;;;;4.20;2.60;;;15.90;82.30;;;;;;5068933;28;20866;-70
2023/07/07 02:49:31;;;;;;;5.30;2.83;;;15.80;82.10;;;;;;5069747;28;20426;-70
2023/07/07 02:51:58;;;;;;;2.78;2.47;;;15.80;82.50;;;;;;5070539;28;20435;-70
2023/07/07 02:54:26;;;;;;;3.67;2.70;;;15.80;81.90;;;;;;5069983;28;20443;-70
2023/07/07 02:56:54;;;;;;;3.40;2.70;;;15.80;82.80;;;;;;5069864;28;20412;-70
2023/07/07 02:59:21;;;;;;;3.70;2.60;;;15.80;82.40;;;;;;5069570;28;20423;-70
2023/07/07 03:01:48;;;;;;;3.42;3.13;;;15.70;83.40;;;;;;5051066;28;20733;-71
2023/07/07 03:04:15;;;;;;;5.30;2.80;;;15.70;83.60;;;;;;5050372;28;20413;-70
2023/07/07 03:06:42;;;;;;;3.30;3.00;;;15.70;84.50;;;;;;5050343;28;20428;-71
2023/07/07 03:09:09;;;;;;;4.40;2.92;;;15.70;85.00;;;;;;5049130;28;20422;-70
2023/07/07 03:11:37;;;;;;;4.38;3.20;;;15.60;84.60;;;;;;5053869;28;20443;-70
2023/07/07 03:14:05;;;;;;;3.30;2.85;;;15.50;85.90;;;;;;5069890;28;20411;-70
2023/07/07 03:16:32;;;;;;;3.72;2.90;;;15.50;86.90;;;;;;5070402;28;20419;-71
2023/07/07 03:19:02;;;;;;;3.35;3.05;;;15.50;87.00;;;;;;5069310;28;20419;-70
2023/07/07 03:21:29;;;;;;;3.55;2.88;;;15.50;87.30;;;;;;5070285;28;20435;-70
2023/07/07 03:23:57;;;;;;;4.00;2.80;;;15.40;87.70;;;;;;5069517;28;20426;-70
2023/07/07 03:26:26;;;;;;;4.55;2.90;;;15.40;87.90;;;;;;5068880;28;20927;-70
2023/07/07 03:28:54;;;;;;;4.40;2.80;;;15.40;88.10;;;;;;5068688;28;20408;-71
2023/07/07 03:31:25;;;;;;;3.50;2.75;;;15.40;87.80;;;;;;5069832;28;20885;-70
2023/07/07 03:33:53;;;;;;;3.60;2.70;;;15.30;88.30;;;;;;5069805;28;20428;-70
2023/07/07 03:36:21;;;;;;;4.88;3.15;;;15.30;89.00;;;;;;5069787;28;20422;-70
2023/07/07 03:38:49;;;;;;;4.85;3.00;;;15.30;89.20;;;;;;5068928;28;20423;-70
2023/07/07 03:41:17;;;;;;;4.15;2.97;;;15.30;89.70;;;;;;5068688;28;20435;-71
2023/07/07 03:43:45;;;;;;;3.25;2.50;;;15.30;88.70;;;;;;5070763;28;20414;-71
2023/07/07 03:46:13;;;;;;;3.42;2.80;;;15.30;88.40;;;;;;5071820;28;20428;-72
2023/07/07 03:48:40;;;;;;;4.40;2.85;;;15.20;88.20;;;;;;5070057;28;20415;-71
2023/07/07 03:51:07;;;;;;;3.40;2.40;;;15.20;87.50;;;;;;5069275;28;20470;-70
2023/07/07 03:53:34;;;;;;;3.20;2.70;;;15.20;87.00;;;;;;5069186;28;20510;-70
2023/07/07 03:56:01;;;;;;;4.27;2.60;;;15.20;86.60;;;;;;5068327;28;20990;-71
2023/07/07 03:58:28;;;;;;;4.18;2.70;;;15.20;86.10;;;;;;5064714;28;20512;-69
2023/07/07 04:00:55;;;;;;;3.03;2.50;;;15.10;86.40;;;;;;5068395;28;20870;-69
2023/07/07 04:03:24;;;;;;;3.00;2.50;;;15.10;85.90;;;;;;5068992;28;20403;-71
2023/07/07 04:05:51;;;;;;;6.25;2.50;;;15.00;86.40;;;;;;5068861;28;20460;-69
2023/07/07 04:08:22;;;;;;;3.80;2.53;;;15.00;86.30;;;;;;5067571;28;20473;-70
2023/07/07 04:10:59;;;;;;;3.47;2.90;;;15.00;86.60;;;;;;5068573;28;20506;-69
2023/07/07 04:13:25;;;;;;;6.70;3.70;;;15.00;87.20;;;;;;5067518;28;20440;-70
2023/07/07 04:15:59;;;;;;;6.28;3.90;;;15.00;86.00;;;;;;5049375;28;20433;-70
2023/07/07 04:18:27;;;;;;;8.00;3.67;;;15.00;85.10;;;;;;5048797;28;20409;-70
2023/07/07 04:20:54;;;;;;;6.47;3.80;;;14.90;84.80;;;;;;5056549;28;20801;-71
2023/07/07 04:23:22;;;;;;;7.05;3.90;;;14.90;85.60;;;;;;5068427;28;20415;-71
2023/07/07 04:25:50;;;;;;;7.43;3.97;;;14.90;86.10;;;;;;5069005;28;20819;-71
2023/07/07 04:28:17;;;;;;;6.68;3.60;;;14.90;86.20;;;;;;5061052;28;20936;-70
2023/07/07 04:30:44;;;;;;;6.72;3.85;;;14.90;85.10;;;;;;5068939;28;20901;-71
2023/07/07 04:33:11;;;;;;;6.53;3.53;;;14.90;85.10;;;;;;5071835;28;20797;-71
2023/07/07 04:35:39;;;;;;;4.80;3.30;;;15.00;84.80;;;;;;5061313;28;20437;-70
2023/07/07 04:38:05;;;;;;;4.25;2.90;;;14.90;84.50;;;;;;5070928;28;20415;-69
2023/07/07 04:40:33;;;;;;;4.80;2.70;;;14.90;84.60;;;;;;5069516;28;20416;-70
2023/07/07 04:42:59;;;;;;;3.47;2.42;;;14.90;84.70;;;;;;5067890;28;20531;-70
2023/07/07 04:45:26;;;;;;;6.78;2.50;;;14.90;84.90;;;;;;5068324;28;20922;-71
2023/07/07 04:47:53;;;;;;;3.83;2.47;;;14.90;84.90;;;;;;5068659;28;20419;-71
2023/07/07 04:50:20;;;;;;;3.40;2.42;;;15.00;85.60;;;;;;5068207;28;20806;-70
2023/07/07 04:52:48;;;;;;;3.60;2.50;;;15.00;85.00;;;;;;5070397;28;20481;-70
2023/07/07 04:55:15;;;;;;;4.80;2.70;;;15.00;84.10;;;;;;5071721;28;20829;-70
2023/07/07 04:57:42;;;;;;;4.00;2.65;;;15.00;83.80;;;;;;5060563;28;20438;-70
2023/07/07 05:00:09;;;;;;;6.50;3.90;;;15.00;84.20;;;;;;5096931;22;20412;-69
2023/07/07 05:02:36;;;;;;;6.13;3.60;;;15.10;83.60;;;;;;5091578;28;20863;-69
2023/07/07 05:05:03;;;;;;;6.13;4.00;;;15.10;82.70;;;;;;5091667;28;20448;-69
2023/07/07 05:07:30;;;;;;;5.78;4.00;;;15.10;82.80;;;;;;5085035;28;20741;-70
2023/07/07 05:09:58;;;;;;;4.90;4.10;;;15.10;83.10;;;;;;5070828;28;20419;-70
2023/07/07 05:12:25;;;;;;;5.50;3.85;;;15.10;83.00;;;;;;5054339;28;21818;-70
2023/07/07 05:14:52;;;;;;;4.05;3.40;;;15.20;82.70;;;;;;5062296;28;21066;-70
2023/07/07 05:17:19;;;;;;;6.05;3.65;;;15.20;82.90;;;;;;5057279;28;20444;-69
2023/07/07 05:19:46;;;;;;;4.93;3.15;;;15.20;82.50;;;;;;5052130;28;20414;-69
2023/07/07 05:22:13;;;;;;;4.60;2.88;;;15.30;81.80;;;;;;5052082;28;20423;-70
2023/07/07 05:24:39;;;;;;;3.50;2.70;;;15.30;82.20;;;;;;5052229;28;20417;-68
2023/07/07 05:27:08;;;;;;;4.27;3.70;;;15.30;82.40;;;;;;5052400;28;20914;-69
2023/07/07 05:29:34;;;;;;;5.50;3.00;;;15.30;82.40;;;;;;5058919;28;20525;-68
2023/07/07 05:32:01;;;;;;;3.63;2.70;;;15.40;82.40;;;;;;5059530;28;20888;-69
2023/07/07 05:34:28;;;;;;;4.47;2.60;;;15.40;82.70;;;;;;5051927;28;20429;-69
2023/07/07 05:36:54;;;;;;;3.08;2.50;;;15.50;81.20;;;;;;5052144;28;20774;-69
2023/07/07 05:39:21;;;;;;;3.60;2.50;;;15.50;80.60;;;;;;5051362;28;20420;-68
2023/07/07 05:41:48;;;;;;;2.90;2.35;;;15.60;82.10;;;;;;5052565;28;20417;-69
2023/07/07 05:44:16;;;;;;;4.70;2.30;;;15.50;82.10;;;;;;5058803;28;20425;-69
2023/07/07 05:46:43;;;;;;;4.30;2.50;;;15.60;81.10;;;;;;5061347;28;20483;-69
2023/07/07 05:49:10;;;;;;;2.90;2.70;;;15.70;80.30;;;;;;5057441;28;20433;-70
2023/07/07 05:51:36;;;;;;;3.92;2.35;;;15.70;79.70;;;;;;5051867;28;20413;-69
2023/07/07 05:54:03;;;;;;;5.00;2.60;;;15.70;79.40;;;;;;5051099;28;20428;-69
2023/07/07 05:56:30;;;;;;;4.38;2.58;;;15.80;79.40;;;;;;5052385;28;20417;-69
2023/07/07 05:58:57;;;;;;;5.03;2.60;;;15.90;79.40;;;;;;5054790;28;20433;-69
2023/07/07 06:01:26;;;;;;;6.47;3.00;;;15.90;77.90;;;;;;5056212;28;20417;-69
2023/07/07 06:03:53;;;;;;;4.00;2.70;;;16.00;77.60;;;;;;5053716;28;20420;-69
2023/07/07 06:06:20;;;;;;;3.65;2.67;;;16.00;76.60;;;;;;5051922;28;20420;-70
2023/07/07 06:08:46;;;;;;;3.25;2.40;;;16.00;75.70;;;;;;5051907;28;20410;-69
2023/07/07 06:11:13;;;;;;;3.60;2.50;;;16.10;75.60;;;;;;5051627;28;20420;-69
2023/07/07 06:13:40;;;;;;;3.70;2.10;;;16.10;76.00;;;;;;5054541;28;20930;-68
2023/07/07 06:16:07;;;;;;;3.55;2.22;;;16.20;75.50;;;;;;5071871;28;20461;-70
2023/07/07 06:18:36;;;;;;;3.40;2.03;;;16.30;75.30;;;;;;5071594;28;20889;-69
2023/07/07 06:21:03;;;;;;;2.78;2.35;;;16.40;74.40;;;;;;5071704;28;20416;-68
2023/07/07 06:23:30;;;;;;;4.20;2.08;;;16.40;73.60;;;;;;5071244;28;20418;-69
2023/07/07 06:25:57;;;;;;;2.17;1.97;;;16.40;72.90;;;;;;5071275;28;20412;-68
2023/07/07 06:28:24;;;;;;;2.72;2.00;;;16.50;72.90;;;;;;5063025;28;20433;-69
2023/07/07 06:30:52;;;;;;;3.20;2.00;;;16.60;72.80;;;;;;5058998;28;20437;-69
2023/07/07 06:33:19;;;;;;;2.90;2.15;;;16.60;71.70;;;;;;5051306;28;20520;-69
2023/07/07 06:35:47;;;;;;;4.70;2.10;;;16.70;72.20;;;;;;5051189;28;20414;-69
2023/07/07 06:38:14;;;;;;;4.35;2.00;;;16.80;72.10;;;;;;5050828;28;20409;-70
2023/07/07 06:40:41;;;;;;;4.30;2.10;;;16.80;72.20;;;;;;5050880;28;20484;-69
2023/07/07 06:43:08;;;;;;;3.93;2.30;;;16.90;70.80;;;;;;5056538;28;20440;-68
2023/07/07 06:45:36;;;;;;;4.23;2.50;;;17.00;70.70;;;;;;5058996;28;20424;-69
2023/07/07 06:48:04;;;;;;;3.00;2.22;;;17.00;70.30;;;;;;5051292;28;20496;-68
2023/07/07 06:50:33;;;;;;;4.25;2.00;;;17.10;68.90;;;;;;5050612;28;20449;-68
2023/07/07 06:53:01;;;;;;;2.70;2.00;;;17.20;68.00;;;;;;5050963;28;20539;-69
2023/07/07 06:55:27;;;;;;;3.03;2.15;;;17.30;68.30;;;;;;5051388;28;20721;-70
2023/07/07 06:57:54;;;;;;;3.50;2.25;;;17.40;68.20;;;;;;5077324;28;20416;-69
2023/07/07 07:00:21;;;;;;;2.58;2.20;;;17.50;66.40;;;;;;5079146;28;20416;-70
2023/07/07 07:02:48;;;;;;;3.00;1.80;;;17.60;66.20;;;;;;5073954;28;20433;-69
2023/07/07 07:05:15;;;;;;;4.00;2.20;;;17.70;66.50;;;;;;5050748;28;20424;-69
2023/07/07 07:07:42;;;;;;;3.53;2.40;;;17.80;66.40;;;;;;5050769;28;20424;-69
2023/07/07 07:10:11;;;;;;;3.53;2.15;;;17.90;66.60;;;;;;5049942;28;20421;-69
2023/07/07 07:12:38;;;;;;;2.80;2.10;;;18.00;65.50;;;;;;5052360;28;20444;-69
2023/07/07 07:15:05;;;;;;;2.42;2.00;;;18.20;64.80;;;;;;5056178;28;20436;-70
2023/07/07 07:17:32;;;;;;;3.00;2.70;;;18.30;64.30;;;;;;5050526;28;20527;-69
2023/07/07 07:20:00;;;;;;;3.20;2.13;;;18.40;63.40;;;;;;5049552;28;20416;-70
2023/07/07 07:22:27;;;;;;;3.83;2.20;;;18.60;63.80;;;;;;5050185;28;20504;-70
2023/07/07 07:24:53;;;;;;;2.47;2.28;;;18.70;61.60;;;;;;5058983;28;20906;-68
2023/07/07 07:27:21;;;;;;;2.90;2.40;;;18.80;60.80;;;;;;5060256;28;20440;-70
2023/07/07 07:29:48;;;;;;;4.68;2.00;;;19.00;61.10;;;;;;5060607;28;20606;-69
2023/07/07 07:32:15;;;;;;;2.10;1.90;;;19.10;61.30;;;;;;5056075;28;20500;-68
2023/07/07 07:34:41;;;;;;;5.15;2.30;;;19.20;59.30;;;;;;5056352;28;20430;-70
2023/07/07 07:37:08;;;;;;;3.00;2.13;;;19.40;58.30;;;;;;5058915;28;20721;-68
2023/07/07 07:39:36;;;;;;;3.00;2.30;;;19.50;57.70;;;;;;5052128;28;20477;-68
2023/07/07 07:42:03;;;;;;;2.60;2.30;;;19.70;58.10;;;;;;5062565;28;20436;-68
2023/07/07 07:44:32;;;;;;;2.60;2.10;;;19.90;57.30;;;;;;5057095;28;20440;-68
2023/07/07 07:47:00;;;;;;;2.80;2.40;;;20.10;56.40;;;;;;5057718;28;20443;-70
2023/07/07 07:49:27;;;;;;;4.30;2.10;;;20.30;55.80;;;;;;5049530;28;20882;-69
2023/07/07 07:51:55;;;;;;;3.10;2.80;;;20.40;55.60;;;;;;5064151;28;20445;-68
2023/07/07 07:54:23;;;;;;;3.25;1.95;;;20.60;54.30;;;;;;5070521;28;20451;-69
2023/07/07 07:56:50;;;;;;;2.75;2.28;;;20.70;55.40;;;;;;5077428;28;20451;-70
2023/07/07 07:59:17;;;;;;;3.13;2.30;;;20.90;54.70;;;;;;5066057;28;20421;-68
2023/07/07 08:01:45;;;;;;;2.85;2.33;;;21.00;52.80;;;;;;5051872;28;20414;-70
2023/07/07 08:04:12;;;;;;;3.80;2.10;;;21.10;53.50;;;;;;5050680;28;20406;-69
2023/07/07 08:06:39;;;;;;;2.53;2.20;;;21.30;53.10;;;;;;5065775;28;20431;-69
2023/07/07 08:09:06;;;;;;;5.30;1.98;;;21.50;51.50;;;;;;5069989;28;20423;-69
2023/07/07 08:11:59;;;;;;;3.23;2.10;;;21.70;50.60;;;;;;5060286;28;20468;-70
2023/07/07 08:14:33;;;;;;;3.05;2.10;;;21.90;50.00;;;;;;5053317;28;20429;-70
2023/07/07 08:17:06;;;;;;;2.72;1.95;;;22.10;48.60;;;;;;5054107;28;20799;-69
2023/07/07 08:19:35;;;;;;;3.00;2.20;;;22.30;47.70;;;;;;5056819;28;20429;-69
2023/07/07 08:22:05;;;;;;;2.20;2.00;;;22.40;48.20;;;;;;5065958;28;20432;-70
2023/07/07 08:24:38;;;;;;;3.45;2.42;;;22.60;47.10;;;;;;5060198;28;20556;-69
2023/07/07 08:27:06;;;;;;;3.28;2.10;;;22.80;46.90;;;;;;5062122;28;20412;-70
2023/07/07 08:29:33;;;;;;;2.25;2.05;;;23.10;44.10;;;;;;5068755;28;20412;-70
2023/07/07 08:32:01;;;;;;;2.88;2.00;;;23.20;43.60;;;;;;5069865;28;20442;-69
2023/07/07 08:34:28;;;;;;;2.88;2.10;;;23.40;43.40;;;;;;5069661;28;20420;-68
2023/07/07 08:36:59;;;;;;;2.90;2.15;;;23.50;43.50;;;;;;5064936;28;20815;-69
2023/07/07 08:39:27;;;;;;;3.67;2.25;;;23.70;43.20;;;;;;5049881;28;20441;-69
2023/07/07 08:41:59;;;;;;;2.60;2.20;;;23.80;42.50;;;;;;5057999;28;20456;-68
2023/07/07 08:44:27;;;;;;;3.80;2.50;;;24.10;42.00;;;;;;5050025;28;20455;-69
2023/07/07 08:47:15;;;;;;;2.25;2.05;;;24.40;40.70;;;;;;5050358;28;20800;-70
2023/07/07 08:49:51;;;;;;;2.10;1.90;;;24.60;39.70;;;;;;5057517;28;20438;-70
2023/07/07 08:52:32;;;;;;;2.00;1.80;;;24.70;39.60;;;;;;5062880;28;20443;-70
2023/07/07 08:55:11;;;;;;;3.60;2.00;;;24.90;38.90;;;;;;5057695;28;20429;-70
2023/07/07 08:57:50;;;;;;;3.93;2.10;;;25.10;38.40;;;;;;5059479;28;20419;-69
2023/07/07 09:00:22;;;;;;;2.40;1.90;;;25.20;38.20;;;;;;5068491;28;20411;-70
2023/07/07 09:03:09;;;;;;;3.38;2.20;;;25.40;38.70;;;;;;5069102;28;20396;-70
2023/07/07 09:05:48;;;;;;;2.50;2.10;;;25.60;37.90;;;;;;5072236;28;20715;-70
2023/07/07 09:08:23;;;;;;;3.40;2.10;;;25.70;37.40;;;;;;5081695;28;20441;-69
2023/07/07 09:11:00;;;;;;;2.42;2.00;;;25.80;36.50;;;;;;5084558;28;20407;-70
2023/07/07 09:13:30;;;;;;;4.60;2.50;;;26.00;36.10;;;;;;5092992;28;20510;-70
2023/07/07 09:16:09;;;;;;;2.20;2.00;;;26.00;35.50;;;;;;5092143;28;20411;-70
2023/07/07 09:18:41;;;;;;;2.40;1.95;;;26.10;35.60;;;;;;5090911;28;20471;-69
2023/07/07 09:21:19;;;;;;;2.80;2.60;;;26.30;34.50;;;;;;5083287;28;20422;-69
2023/07/07 09:23:46;;;;;;;3.70;2.83;;;26.30;34.50;;;;;;5067646;28;20430;-70
2023/07/07 09:26:18;;;;;;;2.75;2.55;;;26.50;34.50;;;;;;5055775;28;20456;-70
2023/07/07 09:28:48;;;;;;;3.80;2.40;;;26.50;34.10;;;;;;5056615;28;20417;-71
2023/07/07 09:31:27;;;;;;;2.80;2.20;;;26.60;33.90;;;;;;5048838;28;20427;-70
2023/07/07 09:33:59;;;;;;;2.73;1.90;;;26.80;33.60;;;;;;5048625;28;20429;-69
2023/07/07 09:36:32;;;;;;;2.40;2.20;;;26.90;33.50;;;;;;5048643;28;20843;-69
2023/07/07 09:39:12;;;;;;;2.17;1.83;;;27.10;33.10;;;;;;5054673;28;20440;-70
2023/07/07 09:41:50;;;;;;;3.08;2.25;;;27.30;33.30;;;;;;5060204;28;20413;-70
2023/07/07 09:44:30;;;;;;;3.00;2.00;;;27.30;32.60;;;;;;5051792;28;20405;-71
2023/07/07 09:47:08;;;;;;;2.00;1.70;;;27.50;31.80;;;;;;5051903;28;20413;-70
2023/07/07 09:49:43;;;;;;;2.28;2.00;;;27.80;32.60;;;;;;5053270;28;20504;-71
2023/07/07 09:52:34;;;;;;;2.75;1.70;;;27.90;31.60;;;;;;5055763;28;20820;-69
2023/07/07 09:55:03;;;;;;;3.13;1.98;;;28.10;31.10;;;;;;5058544;28;20427;-71
2023/07/07 09:57:34;;;;;;;3.67;2.30;;;28.30;30.40;;;;;;5059357;28;20503;-70
2023/07/07 10:00:04;;;;;;;2.53;2.13;;;28.50;30.50;;;;;;5063032;28;20422;-69
2023/07/07 10:02:32;;;;;;;3.90;2.00;;;28.60;28.60;;;;;;5060382;28;20423;-69
2023/07/07 10:05:02;;;;;;;2.60;2.10;;;28.90;28.00;;;;;;5059539;28;20421;-69
2023/07/07 10:07:34;;;;;;;4.22;1.90;;;29.00;27.90;;;;;;5057834;28;20429;-69
2023/07/07 10:10:03;;;;;;;2.33;1.90;;;29.10;27.60;;;;;;5063025;28;20518;-70
2023/07/07 10:12:30;;;;;;;2.00;1.80;;;29.10;27.80;;;;;;5060756;28;20440;-70
2023/07/07 10:14:57;;;;;;;2.00;1.80;;;29.30;28.10;;;;;;5058274;28;20892;-70
2023/07/07 10:17:37;;;;;;;3.00;2.05;;;29.40;27.10;;;;;;5065434;28;20423;-70
2023/07/07 10:20:06;;;;;;;2.67;1.50;;;29.30;26.80;;;;;;5058573;28;20422;-70
2023/07/07 10:22:35;;;;;;;2.88;1.70;;;29.20;26.20;;;;;;5055100;28;20436;-70
2023/07/07 10:25:03;;;;;;;1.60;1.42;;;29.10;26.50;;;;;;5063733;28;20478;-70
2023/07/07 10:27:30;;;;;;;3.10;1.98;;;29.20;26.50;;;;;;5070795;28;20438;-71
2023/07/07 10:30:04;;;;;;;2.50;1.90;;;29.30;26.30;;;;;;5055835;28;20433;-70
2023/07/07 10:32:31;;;;;;;2.20;2.00;;;29.40;26.60;;;;;;5059609;28;20418;-70
2023/07/07 10:35:00;;;;;;;3.70;2.00;;;29.60;26.60;;;;;;5050948;28;20431;-70
2023/07/07 10:37:31;;;;;;;2.10;1.90;;;29.70;27.00;;;;;;5053385;28;20465;-70
2023/07/07 10:40:00;;;;;;;2.38;1.80;;;29.90;26.90;;;;;;5062325;28;20453;-70
2023/07/07 10:42:28;;;;;;;2.88;1.65;;;30.10;26.50;;;;;;5069285;28;20866;-70
2023/07/07 10:44:56;;;;;;;2.78;1.88;;;30.10;26.30;;;;;;5061155;28;20403;-70
2023/07/07 10:47:27;;;;;;;2.40;1.80;;;30.10;26.10;;;;;;5062693;28;20423;-70
2023/07/07 10:49:56;;;;;;;2.70;1.80;;;30.10;26.50;;;;;;5050002;28;20421;-69
2023/07/07 10:52:43;;;;;;;2.80;1.70;;;30.30;26.70;;;;;;5051973;28;20540;-70
2023/07/07 10:55:17;;;;;;;2.38;1.80;;;30.60;25.90;;;;;;5056591;28;20429;-71
2023/07/07 10:57:56;;;;;;;2.40;2.00;;;30.60;26.50;;;;;;5064590;28;20478;-69
2023/07/07 11:00:35;;;;;;;2.45;1.95;;;30.80;25.50;;;;;;5057165;28;20459;-70
2023/07/07 11:03:30;;;;;;;2.90;1.90;;;30.80;26.00;;;;;;5104891;22;20438;-70
2023/07/07 11:06:03;;;;;;;3.35;1.90;;;30.80;26.20;;;;;;5090392;28;20410;-70
2023/07/07 11:08:40;;;;;;;3.00;2.40;;;30.70;26.20;;;;;;5079243;28;20898;-69
2023/07/07 11:11:23;;;;;;;3.00;2.10;;;30.80;26.30;;;;;;5075096;28;20455;-70
2023/07/07 11:14:04;;;;;;;2.13;1.92;;;30.90;25.30;;;;;;5059553;28;20901;-69
2023/07/07 11:16:39;;;;;;;3.45;2.20;;;30.80;25.70;;;;;;5053262;28;20413;-69
2023/07/07 11:19:22;;;;;;;2.20;1.92;;;30.70;24.90;;;;;;5060184;28;20427;-69
2023/07/07 11:22:00;;;;;;;2.30;2.10;;;30.60;25.70;;;;;;5050707;28;20420;-69
2023/07/07 11:24:33;;;;;;;2.72;2.10;;;30.60;25.70;;;;;;5058618;28;20409;-70
2023/07/07 11:27:13;;;;;;;2.40;2.20;;;30.60;25.30;;;;;;5058183;28;20872;-70
2023/07/07 11:29:51;;;;;;;2.05;1.90;;;30.80;25.60;;;;;;5049720;28;20416;-70
2023/07/07 11:32:26;;;;;;;2.28;2.08;;;31.20;25.60;;;;;;5061224;28;20412;-71
2023/07/07 11:35:16;;;;;;;2.72;2.08;;;31.60;25.80;;;;;;5049763;28;20429;-71
2023/07/07 11:38:07;;;;;;;2.30;2.10;;;31.80;24.60;;;;;;5061078;28;20748;-71
2023/07/07 11:40:49;;;;;;;1.70;1.60;;;32.00;24.50;;;;;;5043561;28;20464;-70
2023/07/07 11:43:36;;;;;;;3.22;1.50;;;32.20;24.00;;;;;;5069758;28;20434;-70
2023/07/07 11:46:16;;;;;;;2.90;1.40;;;32.50;23.40;;;;;;5060237;28;20514;-71
2023/07/07 11:48:53;;;;;;;1.83;1.63;;;32.60;23.10;;;;;;5059008;28;20440;-71
2023/07/07 11:51:34;;;;;;;1.75;1.30;;;32.40;22.50;;;;;;5054490;28;20765;-71
2023/07/07 11:54:25;;;;;;;1.90;1.40;;;32.40;22.10;;;;;;5059383;28;20481;-71
2023/07/07 11:57:06;;;;;;;1.60;1.40;;;32.40;22.90;;;;;;5049964;28;20409;-72
2023/07/07 12:00:00;;;;;;;1.77;1.30;;;32.80;22.60;;;;;;5048928;28;20425;-72
2023/07/07 12:02:33;;;;;;;1.90;1.80;;;33.00;22.70;;;;;;5048383;28;20421;-71
2023/07/07 12:05:02;;;;;;;2.50;1.30;;;33.10;22.30;;;;;;5049279;28;20410;-72
2023/07/07 12:07:34;;;;;;;1.80;1.40;;;33.10;23.00;;;;;;5051492;28;20444;-71
2023/07/07 12:10:06;;;;;;;1.73;1.40;;;33.40;22.90;;;;;;5061295;28;20415;-71
2023/07/07 12:12:38;;;;;;;1.80;1.40;;;33.40;22.20;;;;;;5069170;28;20416;-71
2023/07/07 12:15:13;;;;;;;1.60;1.30;;;33.40;23.10;;;;;;5063352;28;20498;-71
2023/07/07 12:17:46;;;;;;;1.30;1.20;;;33.60;22.20;;;;;;5057234;28;20475;-69
2023/07/07 12:20:16;;;;;;;1.30;1.10;;;33.50;21.90;;;;;;5054088;28;20511;-70
2023/07/07 12:22:46;;;;;;;2.17;1.30;;;33.30;21.50;;;;;;5052862;28;20429;-70
2023/07/07 12:25:24;;;;;;;1.30;1.20;;;33.50;22.10;;;;;;5062167;28;20429;-71
2023/07/07 12:27:53;;;;;;;2.50;1.20;;;33.70;21.60;;;;;;5057299;28;20417;-70
2023/07/07 12:30:24;;;;;;;1.50;1.40;;;33.80;21.50;;;;;;5048523;28;20410;-72
2023/07/07 12:32:51;;;;;;;1.70;1.30;;;34.10;21.90;;;;;;5048865;28;20499;-71
2023/07/07 12:35:26;;;;;;;1.20;1.10;;;34.40;21.90;;;;;;5049130;28;20526;-71
2023/07/07 12:37:55;;;;;;;1.20;1.10;;;34.80;21.20;;;;;;5055773;28;20460;-72
2023/07/07 12:40:22;;;;;;;1.60;1.00;;;34.70;21.20;;;;;;5056725;28;20424;-72
2023/07/07 12:42:59;;;;;;;1.38;1.10;;;35.00;20.80;;;;;;5048790;28;20425;-72
2023/07/07 12:45:30;;;;;;;1.25;1.00;;;35.10;22.10;;;;;;5048817;28;20406;-72
2023/07/07 12:48:02;;;;;;;1.30;1.20;;;35.30;21.00;;;;;;5049059;28;20413;-72
2023/07/07 12:50:31;;;;;;;1.00;0.97;;;35.50;22.80;;;;;;5054687;28;20435;-72
2023/07/07 12:53:05;;;;;;;1.45;1.05;;;35.80;21.60;;;;;;5056542;28;20429;-72
2023/07/07 12:55:37;;;;;;;1.90;1.10;;;35.90;20.60;;;;;;5057598;28;20795;-72
2023/07/07 12:58:30;;;;;;;0.90;0.90;;;36.00;21.20;;;;;;5049296;28;20492;-72
2023/07/07 13:01:11;;;;;;;1.70;1.20;;;35.90;19.90;;;;;;5048886;28;20423;-73
2023/07/07 13:03:44;;;;;;;1.23;1.00;;;35.80;20.30;;;;;;5048988;28;20915;-72
2023/07/07 13:06:25;;;;;;;1.35;1.25;;;35.60;19.30;;;;;;5057787;28;20439;-72